createdAt,value
2023-03-26T00:01:29.803Z,97310.19
2023-03-26T00:03:58.749Z,97310.19
2023-03-26T00:06:28.892Z,97311.03
2023-03-26T00:08:58.455Z,97301.09
2023-03-26T00:11:29.597Z,97319.09
2023-03-26T00:13:58.281Z,97318.25
2023-03-26T00:16:28.393Z,97320.13
2023-03-26T00:18:57.865Z,97328.19
2023-03-26T00:21:28.183Z,97339.78
2023-03-26T00:23:58.570Z,97348.66
2023-03-26T00:26:29.825Z,97342.47
2023-03-26T00:28:58.287Z,97313.94
2023-03-26T00:31:26.713Z,97308.56
2023-03-26T00:33:55.813Z,97308.56
2023-03-26T00:36:25.648Z,97308.56
2023-03-26T00:38:54.499Z,97309.38
2023-03-26T00:41:27.109Z,97303.19
2023-03-26T00:43:59.151Z,97296.94
2023-03-26T00:46:29.222Z,97304.00
2023-03-26T00:48:58.987Z,97292.41
2023-03-26T00:51:27.832Z,97292.41
2023-03-26T00:53:56.360Z,97288.88
2023-03-26T00:56:24.840Z,97286.19
2023-03-26T00:58:53.297Z,97280.81
2023-03-26T01:01:28.529Z,97277.13
2023-03-26T01:04:07.346Z,97268.41
2023-03-26T01:06:38.852Z,97263.84
2023-03-26T01:09:14.647Z,97262.00
2023-03-26T01:11:43.255Z,97265.53
2023-03-26T01:14:13.216Z,97259.31
2023-03-26T01:16:45.280Z,97270.91
2023-03-26T01:19:16.506Z,97269.03
2023-03-26T01:21:44.944Z,97264.69
2023-03-26T01:24:14.847Z,97266.56
2023-03-26T01:27:13.254Z,97259.31
2023-03-26T01:29:45.351Z,97257.66
2023-03-26T01:32:26.079Z,97265.72
2023-03-26T01:35:04.742Z,97263.03
2023-03-26T01:37:38.745Z,97266.56
2023-03-26T01:40:11.942Z,97261.41
2023-03-26T01:42:43.654Z,97256.03
2023-03-26T01:45:14.491Z,97259.53
2023-03-26T01:47:43.112Z,97258.72
2023-03-26T01:50:12.072Z,97249.59
2023-03-26T01:52:40.850Z,97253.34
2023-03-26T01:55:11.870Z,97252.47
2023-03-26T01:57:50.115Z,97252.47
2023-03-26T02:00:24.427Z,97265.91
2023-03-26T02:03:17.772Z,97253.34
2023-03-26T02:05:52.676Z,97250.63
2023-03-26T02:08:24.823Z,97250.84
2023-03-26T02:10:57.603Z,97247.09
2023-03-26T02:13:26.405Z,97256.03
2023-03-26T02:15:59.598Z,97254.34
2023-03-26T02:18:36.446Z,97249.78
2023-03-26T02:21:10.088Z,97244.41
2023-03-26T02:23:38.664Z,97248.97
2023-03-26T02:26:09.488Z,97252.47
2023-03-26T02:28:38.399Z,97261.41
2023-03-26T02:31:09.794Z,97261.41
2023-03-26T02:33:39.349Z,97272.16
2023-03-26T02:36:08.933Z,97263.22
2023-03-26T02:38:37.422Z,97263.44
2023-03-26T02:41:06.351Z,97273.97
2023-03-26T02:43:36.227Z,97265.91
2023-03-26T02:46:05.154Z,97259.72
2023-03-26T02:48:34.867Z,97259.72
2023-03-26T02:51:03.300Z,97252.69
2023-03-26T02:53:31.802Z,97252.69
2023-03-26T02:56:02.061Z,97247.31
2023-03-26T02:58:30.813Z,97244.63
2023-03-26T03:01:03.242Z,97232.00
2023-03-26T03:03:31.874Z,97227.69
2023-03-26T03:06:00.458Z,97223.13
2023-03-26T03:08:29.529Z,97234.94
2023-03-26T03:10:59.596Z,97236.56
2023-03-26T03:13:28.241Z,97236.56
2023-03-26T03:15:56.902Z,97236.56
2023-03-26T03:18:26.991Z,97235.75
2023-03-26T03:20:55.437Z,97237.63
2023-03-26T03:23:24.014Z,97232.25
2023-03-26T03:25:53.123Z,97230.38
2023-03-26T03:28:22.625Z,97230.38
2023-03-26T03:30:53.248Z,97229.53
2023-03-26T03:33:21.969Z,97226.84
2023-03-26T03:35:53.186Z,97225.00
2023-03-26T03:38:21.870Z,97218.78
2023-03-26T03:40:50.328Z,97226.84
2023-03-26T03:43:18.972Z,97211.75
2023-03-26T03:45:47.563Z,97221.47
2023-03-26T03:48:18.271Z,97230.38
2023-03-26T03:50:46.679Z,97230.56
2023-03-26T03:53:16.573Z,97234.06
2023-03-26T03:55:53.138Z,97231.38
2023-03-26T03:58:22.361Z,97238.63
2023-03-26T04:00:50.941Z,97241.31
2023-03-26T04:03:20.012Z,97240.31
2023-03-26T04:06:02.415Z,97243.00
2023-03-26T04:08:32.203Z,97236.75
2023-03-26T04:11:00.694Z,97237.81
2023-03-26T04:13:29.118Z,97244.81
2023-03-26T04:15:58.074Z,97241.31
2023-03-26T04:18:27.849Z,97239.69
2023-03-26T04:20:56.385Z,97233.25
2023-03-26T04:23:26.687Z,97239.69
2023-03-26T04:25:56.950Z,97229.75
2023-03-26T04:28:30.552Z,97240.50
2023-03-26T04:31:02.131Z,97237.81
2023-03-26T04:33:31.072Z,97237.00
2023-03-26T04:36:01.771Z,97226.22
2023-03-26T04:38:33.586Z,97227.25
2023-03-26T04:41:04.645Z,97231.59
2023-03-26T04:43:35.698Z,97231.59
2023-03-26T04:46:04.665Z,97232.63
2023-03-26T04:48:33.193Z,97232.63
2023-03-26T04:51:01.785Z,97238.00
2023-03-26T04:53:30.294Z,97238.84
2023-03-26T04:56:01.643Z,97240.69
2023-03-26T04:58:33.216Z,97238.00
2023-03-26T05:01:10.210Z,97229.13
2023-03-26T05:03:41.504Z,97229.13
2023-03-26T05:06:11.553Z,97228.28
2023-03-26T05:08:40.047Z,97223.53
2023-03-26T05:11:11.741Z,97219.81
2023-03-26T05:13:42.984Z,97221.88
2023-03-26T05:16:12.597Z,97220.03
2023-03-26T05:18:41.330Z,97220.84
2023-03-26T05:21:10.935Z,97217.34
2023-03-26T05:23:39.407Z,97230.78
2023-03-26T05:26:08.801Z,97229.94
2023-03-26T05:28:37.325Z,97228.69
2023-03-26T05:31:08.358Z,97231.19
2023-03-26T05:33:37.589Z,97238.03
2023-03-26T05:36:09.370Z,97227.88
2023-03-26T05:38:38.059Z,97238.22
2023-03-26T05:41:08.883Z,97234.09
2023-03-26T05:43:37.486Z,97232.84
2023-03-26T05:46:08.578Z,97235.72
2023-03-26T05:48:38.174Z,97235.97
2023-03-26T05:51:08.096Z,97239.47
2023-03-26T05:53:36.658Z,97235.09
2023-03-26T05:56:05.675Z,97237.00
2023-03-26T05:58:34.843Z,97243.38
2023-03-26T06:01:06.060Z,97238.66
2023-03-26T06:03:36.937Z,97251.03
2023-03-26T06:06:08.225Z,97245.25
2023-03-26T06:08:36.747Z,97255.38
2023-03-26T06:11:08.288Z,97246.72
2023-03-26T06:13:36.883Z,97253.75
2023-03-26T06:16:05.748Z,97238.66
2023-03-26T06:18:35.786Z,97241.94
2023-03-26T06:21:04.486Z,97240.09
2023-03-26T06:23:33.055Z,97243.81
2023-03-26T06:26:01.559Z,97245.66
2023-03-26T06:28:29.984Z,97244.00
2023-03-26T06:31:01.041Z,97245.25
2023-03-26T06:33:29.672Z,97248.34
2023-03-26T06:35:59.626Z,97250.44
2023-03-26T06:38:28.114Z,97243.59
2023-03-26T06:40:56.855Z,97247.31
2023-03-26T06:43:25.517Z,97241.34
2023-03-26T06:45:54.103Z,97244.84
2023-03-26T06:48:22.535Z,97249.41
2023-03-26T06:50:51.250Z,97247.72
2023-03-26T06:53:21.188Z,97248.78
2023-03-26T06:55:49.668Z,97246.91
2023-03-26T06:58:18.062Z,97257.66
2023-03-26T07:00:46.639Z,97249.78
2023-03-26T07:03:17.303Z,97245.25
2023-03-26T07:05:46.076Z,97250.63
2023-03-26T07:08:14.499Z,97244.41
2023-03-26T07:10:44.344Z,97248.97
2023-03-26T07:13:12.836Z,97254.34
2023-03-26T07:15:41.400Z,97239.03
2023-03-26T07:18:09.918Z,97263.22
2023-03-26T07:20:38.948Z,97248.97
2023-03-26T07:23:08.349Z,97253.53
2023-03-26T07:25:37.574Z,97255.38
2023-03-26T07:28:14.339Z,97252.69
2023-03-26T07:30:50.410Z,97261.81
2023-03-26T07:33:22.986Z,97251.88
2023-03-26T07:35:54.812Z,97256.44
2023-03-26T07:38:34.100Z,97256.44
2023-03-26T07:41:08.641Z,97259.94
2023-03-26T07:44:20.941Z,97268.00
2023-03-26T07:46:49.469Z,97264.50
2023-03-26T07:49:20.467Z,97268.00
2023-03-26T07:51:49.906Z,97262.63
2023-03-26T07:54:19.083Z,97263.66
2023-03-26T07:56:52.811Z,97262.81
2023-03-26T07:59:29.353Z,97260.13
2023-03-26T08:02:33.105Z,97262.81
2023-03-26T08:05:19.844Z,97258.50
2023-03-26T08:08:00.888Z,97269.03
2023-03-26T08:10:33.182Z,97262.81
2023-03-26T08:13:09.073Z,97253.94
2023-03-26T08:15:44.169Z,97265.50
2023-03-26T08:18:27.555Z,97265.50
2023-03-26T08:21:11.281Z,97262.81
2023-03-26T08:23:50.291Z,97248.56
2023-03-26T08:26:27.569Z,97253.94
2023-03-26T08:29:03.932Z,97257.44
2023-03-26T08:31:36.738Z,97243.19
2023-03-26T08:34:05.246Z,97232.44
2023-03-26T08:36:33.818Z,97253.75
2023-03-26T08:39:02.421Z,97249.38
2023-03-26T08:42:12.425Z,97253.94
2023-03-26T08:45:36.409Z,97253.94
2023-03-26T08:48:54.754Z,97248.56
2023-03-26T08:52:01.648Z,97245.88
2023-03-26T08:55:23.957Z,97240.50
2023-03-26T08:58:58.897Z,97240.50
2023-03-26T09:02:19.202Z,97230.56
2023-03-26T09:05:20.480Z,97233.25
2023-03-26T09:08:53.725Z,97228.91
2023-03-26T09:12:01.932Z,97221.69
2023-03-26T09:15:27.282Z,97230.78
2023-03-26T09:18:37.354Z,97225.19
2023-03-26T09:21:46.774Z,97225.41
2023-03-26T09:24:54.626Z,97220.84
2023-03-26T09:27:39.753Z,97226.22
2023-03-26T09:30:56.265Z,97214.66
2023-03-26T09:33:33.348Z,97212.97
2023-03-26T09:36:31.633Z,97220.03
2023-03-26T09:39:08.847Z,97218.34
2023-03-26T09:41:44.204Z,97212.97
2023-03-26T09:45:10.721Z,97211.97
2023-03-26T09:48:05.675Z,97212.16
2023-03-26T09:50:46.354Z,97216.50
2023-03-26T09:53:33.909Z,97212.16
2023-03-26T09:56:10.061Z,97217.53
2023-03-26T09:59:08.293Z,97213.22
2023-03-26T10:01:41.754Z,97222.91
2023-03-26T10:04:54.552Z,97233.66
2023-03-26T10:07:49.035Z,97221.28
2023-03-26T10:10:23.876Z,97224.97
2023-03-26T10:12:59.743Z,97223.97
2023-03-26T10:15:53.408Z,97203.47
2023-03-26T10:18:27.550Z,97218.59
2023-03-26T10:21:01.842Z,97211.53
2023-03-26T10:23:53.069Z,97207.84
2023-03-26T10:27:08.923Z,97209.66
2023-03-26T10:30:00.891Z,97202.47
2023-03-26T10:32:33.399Z,97208.66
2023-03-26T10:35:12.778Z,97213.22
2023-03-26T10:37:52.796Z,97209.66
2023-03-26T10:40:24.997Z,97199.75
2023-03-26T10:43:38.228Z,97195.22
2023-03-26T10:46:31.832Z,97198.72
2023-03-26T10:49:44.407Z,97195.22
2023-03-26T10:52:16.184Z,97191.47
2023-03-26T10:54:54.256Z,97185.28
2023-03-26T10:57:34.780Z,97186.09
2023-03-26T11:00:15.817Z,97177.22
2023-03-26T11:02:48.331Z,97186.09
2023-03-26T11:05:29.746Z,97177.22
2023-03-26T11:08:01.329Z,97177.22
2023-03-26T11:10:40.490Z,97169.16
2023-03-26T11:13:15.534Z,97162.94
2023-03-26T11:15:47.894Z,97163.78
2023-03-26T11:18:19.720Z,97157.56
2023-03-26T11:20:50.717Z,97144.97
2023-03-26T11:23:32.691Z,97146.59
2023-03-26T11:26:16.721Z,97142.28
2023-03-26T11:29:31.224Z,97142.28
2023-03-26T11:32:06.850Z,97148.69
2023-03-26T11:34:38.519Z,97144.13
2023-03-26T11:37:09.814Z,97144.97
2023-03-26T11:39:44.389Z,97140.63
2023-03-26T11:42:15.123Z,97130.69
2023-03-26T11:44:47.323Z,97131.72
2023-03-26T11:47:20.026Z,97135.25
2023-03-26T11:49:48.450Z,97126.34
2023-03-26T11:52:16.946Z,97125.31
2023-03-26T11:54:48.403Z,97123.66
2023-03-26T11:57:20.494Z,97129.88
2023-03-26T11:59:57.152Z,97126.13
2023-03-26T12:02:32.511Z,97121.81
2023-03-26T12:05:19.488Z,97117.44
2023-03-26T12:07:53.033Z,97119.13
2023-03-26T12:10:27.913Z,97104.00
2023-03-26T12:12:58.292Z,97106.69
2023-03-26T12:15:27.326Z,97108.38
2023-03-26T12:17:58.538Z,97103.00
2023-03-26T12:20:38.865Z,97091.38
2023-03-26T12:23:08.266Z,97079.81
2023-03-26T12:25:37.653Z,97077.13
2023-03-26T12:28:13.321Z,97079.00
2023-03-26T12:30:42.582Z,97062.88
2023-03-26T12:33:18.274Z,97074.44
2023-03-26T12:35:46.917Z,97068.25
2023-03-26T12:38:19.234Z,97063.69
2023-03-26T12:40:47.990Z,97060.19
2023-03-26T12:44:54.713Z,97051.28
2023-03-26T12:47:56.440Z,97047.78
2023-03-26T12:49:17.344Z,97056.66
2023-03-26T12:51:49.625Z,97039.72
2023-03-26T12:54:42.579Z,97040.53
2023-03-26T12:57:21.609Z,97042.19
2023-03-26T13:00:28.990Z,97030.59
2023-03-26T13:03:16.703Z,97035.16
2023-03-26T13:06:09.302Z,97030.59
2023-03-26T13:09:05.072Z,97030.59
2023-03-26T13:11:37.753Z,97024.41
2023-03-26T13:14:47.882Z,97032.47
2023-03-26T13:17:23.196Z,97034.13
2023-03-26T13:19:59.610Z,97036.81
2023-03-26T13:22:33.944Z,97029.78
2023-03-26T13:25:09.393Z,97033.31
2023-03-26T13:27:45.849Z,97025.22
2023-03-26T13:30:25.587Z,97026.06
2023-03-26T13:33:13.619Z,97020.91
2023-03-26T13:35:46.827Z,97022.53
2023-03-26T13:38:20.731Z,97019.03
2023-03-26T13:40:54.089Z,97012.84
2023-03-26T13:43:39.282Z,97010.97
2023-03-26T13:46:14.080Z,96999.41
2023-03-26T13:48:46.555Z,97002.91
2023-03-26T13:51:19.066Z,96998.56
2023-03-26T13:53:52.351Z,97008.28
2023-03-26T13:56:25.302Z,97001.25
2023-03-26T13:58:57.589Z,97002.09
2023-03-26T14:01:34.053Z,97000.41
2023-03-26T14:04:07.923Z,96998.56
2023-03-26T14:06:43.569Z,97001.25
2023-03-26T14:09:18.611Z,96996.91
2023-03-26T14:12:23.003Z,96999.59
2023-03-26T14:14:54.276Z,96991.53
2023-03-26T14:17:25.758Z,96996.09
2023-03-26T14:20:51.521Z,96984.53
2023-03-26T14:23:59.826Z,96988.03
2023-03-26T14:26:58.395Z,96990.72
2023-03-26T14:29:56.974Z,96989.91
2023-03-26T14:32:46.748Z,96976.47
2023-03-26T14:35:29.587Z,96971.09
2023-03-26T14:38:25.251Z,96971.09
2023-03-26T14:41:05.508Z,96969.22
2023-03-26T14:44:30.777Z,96969.22
2023-03-26T14:47:18.595Z,96971.09
2023-03-26T14:50:37.493Z,96971.09
2023-03-26T14:53:13.572Z,96968.41
2023-03-26T14:56:11.724Z,96966.72
2023-03-26T14:59:26.701Z,96959.50
2023-03-26T15:03:11.458Z,96954.13
2023-03-26T15:06:51.144Z,96952.47
2023-03-26T15:10:11.979Z,96946.28
2023-03-26T15:12:55.634Z,96953.28
2023-03-26T15:16:28.250Z,96947.91
2023-03-26T15:19:38.129Z,96948.75
2023-03-26T15:23:30.556Z,96943.59
2023-03-26T15:26:46.760Z,96939.84
2023-03-26T15:30:13.241Z,96938.00
2023-03-26T15:33:57.218Z,96924.78
2023-03-26T15:37:17.351Z,96936.34
2023-03-26T15:40:00.050Z,96930.16
2023-03-26T15:42:32.428Z,96931.78
2023-03-26T15:45:22.529Z,96930.97
2023-03-26T15:48:01.112Z,96932.84
2023-03-26T15:50:40.452Z,96925.81
2023-03-26T15:53:25.395Z,96926.63
2023-03-26T15:56:33.030Z,96930.97
2023-03-26T15:59:07.550Z,96924.78
2023-03-26T16:01:51.640Z,96923.94
2023-03-26T16:04:26.739Z,96922.91
2023-03-26T16:07:03.843Z,96924.78
2023-03-26T16:09:54.537Z,96917.75
2023-03-26T16:12:36.010Z,96915.88
2023-03-26T16:15:26.719Z,96917.75
2023-03-26T16:18:34.214Z,96911.53
2023-03-26T16:21:40.495Z,96918.56
2023-03-26T16:24:37.685Z,96909.69
2023-03-26T16:27:29.977Z,96915.06
2023-03-26T16:30:30.563Z,96916.09
2023-03-26T16:33:09.913Z,96910.72
2023-03-26T16:36:09.649Z,96909.91
2023-03-26T16:38:55.525Z,96908.03
2023-03-26T16:41:27.976Z,96909.91
2023-03-26T16:44:11.747Z,96916.09
2023-03-26T16:46:49.645Z,96908.03
2023-03-26T16:49:27.632Z,96909.91
2023-03-26T16:52:09.776Z,96902.66
2023-03-26T16:54:46.154Z,96911.75
2023-03-26T16:57:28.155Z,96904.53
2023-03-26T17:00:40.418Z,96906.38
2023-03-26T17:03:41.182Z,96911.75
2023-03-26T17:06:29.128Z,96911.75
2023-03-26T17:09:06.518Z,96907.41
2023-03-26T17:11:44.263Z,96910.94
2023-03-26T17:14:35.190Z,96908.25
2023-03-26T17:17:28.568Z,96914.44
2023-03-26T17:20:00.168Z,96909.06
2023-03-26T17:22:38.410Z,96907.41
2023-03-26T17:25:20.211Z,96910.72
2023-03-26T17:27:52.900Z,96909.91
2023-03-26T17:30:43.118Z,96910.94
2023-03-26T17:33:16.424Z,96909.06
2023-03-26T17:35:46.233Z,96906.38
2023-03-26T17:38:55.384Z,96916.31
2023-03-26T17:42:13.817Z,96914.44
2023-03-26T17:44:45.222Z,96919.81
2023-03-26T17:47:28.337Z,96914.44
2023-03-26T17:50:01.076Z,96916.31
2023-03-26T17:52:42.521Z,96912.78
2023-03-26T17:55:11.713Z,96915.47
2023-03-26T17:57:43.022Z,96920.03
2023-03-26T18:00:18.417Z,96916.53
2023-03-26T18:02:54.213Z,96903.91
2023-03-26T18:05:22.939Z,96912.16
2023-03-26T18:08:56.560Z,96913.59
2023-03-26T18:11:59.125Z,96909.84
2023-03-26T18:15:28.132Z,96918.97
2023-03-26T18:18:04.532Z,96916.50
2023-03-26T18:20:36.708Z,96927.88
2023-03-26T18:23:11.609Z,96912.38
2023-03-26T18:25:41.120Z,96918.34
2023-03-26T18:28:12.899Z,96920.22
2023-03-26T18:30:48.606Z,96923.28
2023-03-26T18:33:19.536Z,96909.84
2023-03-26T18:35:53.042Z,96910.69
2023-03-26T18:38:36.020Z,96911.53
2023-03-26T18:41:08.212Z,96911.94
2023-03-26T18:43:43.929Z,96917.91
2023-03-26T18:46:13.643Z,96914.84
2023-03-26T18:48:43.626Z,96918.53
2023-03-26T18:51:12.099Z,96918.09
2023-03-26T18:53:42.867Z,96918.53
2023-03-26T18:56:32.277Z,96930.72
2023-03-26T18:59:02.550Z,96918.34
2023-03-26T19:01:32.183Z,96917.72
2023-03-26T19:04:04.181Z,96912.53
2023-03-26T19:06:35.883Z,96916.28
2023-03-26T19:09:13.497Z,96902.22
2023-03-26T19:11:50.055Z,96906.78
2023-03-26T19:14:19.634Z,96904.09
2023-03-26T19:16:49.629Z,96906.56
2023-03-26T19:19:23.139Z,96910.91
2023-03-26T19:21:51.739Z,96909.25
2023-03-26T19:24:20.238Z,96910.28
2023-03-26T19:26:48.888Z,96911.13
2023-03-26T19:29:20.447Z,96903.28
2023-03-26T19:31:52.340Z,96894.16
2023-03-26T19:34:27.451Z,96894.16
2023-03-26T19:36:59.542Z,96892.53
2023-03-26T19:39:37.891Z,96893.56
2023-03-26T19:42:06.626Z,96880.94
2023-03-26T19:44:35.919Z,96885.50
2023-03-26T19:47:06.708Z,96882.81
2023-03-26T19:49:48.972Z,96890.03
2023-03-26T19:52:22.332Z,96890.03
2023-03-26T19:55:01.664Z,96890.03
2023-03-26T19:57:32.206Z,96884.66
2023-03-26T20:00:00.828Z,96879.28
2023-03-26T20:02:29.537Z,96874.75
2023-03-26T20:04:59.438Z,96880.94
2023-03-26T20:10:16.692Z,96882.81
2023-03-26T20:12:45.162Z,96873.72
2023-03-26T20:15:22.538Z,96869.38
2023-03-26T20:17:52.596Z,96876.41
2023-03-26T20:20:24.810Z,96872.06
2023-03-26T20:22:53.870Z,96873.72
2023-03-26T20:25:25.210Z,96872.06
2023-03-26T20:27:55.401Z,96864.00
2023-03-26T20:30:36.889Z,96860.28
2023-03-26T20:33:12.028Z,96853.03
2023-03-26T20:35:43.618Z,96849.50
2023-03-26T20:38:12.204Z,96846.81
2023-03-26T20:40:41.079Z,96844.16
2023-03-26T20:43:16.340Z,96833.38
2023-03-26T20:45:44.892Z,96836.06
2023-03-26T20:48:13.500Z,96830.72
2023-03-26T20:50:50.808Z,96824.28
2023-03-26T20:53:20.512Z,96829.22
2023-03-26T20:55:51.058Z,96824.88
2023-03-26T20:58:31.552Z,96822.19
2023-03-26T21:01:02.230Z,96818.91
2023-03-26T21:03:31.078Z,96814.56
2023-03-26T21:06:02.760Z,96814.56
2023-03-26T21:08:37.919Z,96801.13
2023-03-26T21:11:27.028Z,96794.94
2023-03-26T21:14:01.125Z,96783.38
2023-03-26T21:16:30.456Z,96789.56
2023-03-26T21:18:59.668Z,96789.56
2023-03-26T21:21:40.836Z,96787.91
2023-03-26T21:24:13.263Z,96784.41
2023-03-26T21:26:44.427Z,96786.88
2023-03-26T21:29:13.419Z,96794.94
2023-03-26T21:31:42.795Z,96798.44
2023-03-26T21:34:13.360Z,96806.50
2023-03-26T21:36:44.167Z,96801.13
2023-03-26T21:39:13.467Z,96797.63
2023-03-26T21:41:46.128Z,96801.34
2023-03-26T21:44:15.387Z,96794.13
2023-03-26T21:46:45.570Z,96800.53
2023-03-26T21:49:15.146Z,96794.13
2023-03-26T21:51:46.042Z,96781.72
2023-03-26T21:54:23.917Z,96779.84
2023-03-26T21:57:03.353Z,96783.38
2023-03-26T21:59:37.698Z,96776.13
2023-03-26T22:02:10.154Z,96773.66
2023-03-26T22:04:43.006Z,96782.53
2023-03-26T22:07:14.835Z,96769.94
2023-03-26T22:09:44.978Z,96766.41
2023-03-26T22:12:13.527Z,96763.72
2023-03-26T22:14:41.967Z,96772.84
2023-03-26T22:17:10.486Z,96769.09
2023-03-26T22:19:38.968Z,96774.47
2023-03-26T22:22:07.526Z,96773.66
2023-03-26T22:24:37.366Z,96774.69
2023-03-26T22:27:06.347Z,96779.03
2023-03-26T22:29:34.825Z,96770.16
2023-03-26T22:32:04.142Z,96770.16
2023-03-26T22:34:35.142Z,96766.63
2023-03-26T22:37:05.666Z,96757.75
2023-03-26T22:39:34.121Z,96770.16
2023-03-26T22:42:05.026Z,96763.13
2023-03-26T22:44:33.564Z,96763.94
2023-03-26T22:47:02.380Z,96753.19
2023-03-26T22:49:31.485Z,96761.25
2023-03-26T22:51:59.935Z,96748.66
2023-03-26T22:54:29.505Z,96754.03
2023-03-26T22:56:58.026Z,96736.03
2023-03-26T22:59:27.927Z,96729.84
2023-03-26T23:01:56.713Z,96722.59
2023-03-26T23:04:31.481Z,96718.25
2023-03-26T23:07:01.053Z,96719.09
2023-03-26T23:09:29.632Z,96727.16
2023-03-26T23:11:58.152Z,96733.34
2023-03-26T23:14:28.753Z,96727.16
2023-03-26T23:16:57.310Z,96726.31
2023-03-26T23:19:25.843Z,96720.94
2023-03-26T23:21:54.387Z,96712.88
2023-03-26T23:24:22.867Z,96707.50
2023-03-26T23:26:51.461Z,96710.19
2023-03-26T23:29:20.102Z,96702.97
2023-03-26T23:31:53.002Z,96704.81
2023-03-26T23:34:21.629Z,96695.09
2023-03-26T23:36:50.236Z,96698.63
2023-03-26T23:39:18.897Z,96696.75
2023-03-26T23:41:47.314Z,96699.44
2023-03-26T23:44:17.156Z,96694.91
2023-03-26T23:46:45.670Z,96694.91
2023-03-26T23:49:15.694Z,96689.53
2023-03-26T23:51:44.163Z,96696.75
2023-03-26T23:54:12.818Z,96688.72
2023-03-26T23:56:41.250Z,96700.28
2023-03-26T23:59:09.805Z,96689.53
